Terminal Aerodrome Forecast
Issued by NWS Green Bay, WI

Home | Current Version | Previous Version | Text Only | Print | Product List | Glossary Off
Versions: 1 2 3 4 5 6 7 8 9 10 11 12 13 14 15 16 17 18 19 20 21 22 23

000
FTUS43 KGRB 221700
TAFGRB
TAF
KGRB 221722Z 2218/2318 30016G23KT P6SM SCT035 BKN050
      TEMPO 2218/2222 4SM -SHRASN BKN035
     FM222200 31014G22KT P6SM VCSH SCT035 BKN050
     FM230100 30009KT P6SM SCT040 BKN060
     FM231000 30008KT P6SM SCT040 SCT060
     FM231400 30011KT P6SM SCT040=

USA.gov is the U.S. government's official web portal to all federal, state and local government web resources and services.